Time;durP1;ratioP1;P1;durP2;ratioP2;P2;SDS_P1;SDS_P2;PMS_P1;PMS_P2;Temp;Humidity;BMP_temperature;BMP_pressure;BME280_temperature;BME280_humidity;BME280_pressure;Samples;Min_cycle;Max_cycle;Signal;HPM_P1;HPM_P2
2024/01/25 00:00:44;;;;;;;19.77;4.72;;;;;;;7.77;95.79;101512.00;5024722;28;20132;-80
2024/01/25 00:03:10;;;;;;;22.17;4.30;;;;;;;7.76;96.59;101507.66;5022849;28;20666;-82
2024/01/25 00:05:37;;;;;;;22.13;4.70;;;;;;;7.73;96.35;101507.56;5022825;28;20052;-82
2024/01/25 00:08:04;;;;;;;22.77;4.32;;;;;;;7.70;96.19;101508.41;5017661;28;20057;-81
2024/01/25 00:10:30;;;;;;;32.35;5.97;;;;;;;7.73;96.28;101505.88;5014857;28;20061;-80
2024/01/25 00:12:57;;;;;;;24.35;6.07;;;;;;;7.74;96.17;101506.72;5005240;28;20516;-81
2024/01/25 00:15:24;;;;;;;21.52;5.05;;;;;;;7.69;96.62;101509.28;5025801;28;20042;-80
2024/01/25 00:17:51;;;;;;;22.70;6.13;;;;;;;7.62;97.48;101487.44;5010546;28;20042;-80
2024/01/25 00:20:17;;;;;;;23.48;5.97;;;;;;;7.61;97.26;101505.66;5010871;28;20042;-81
2024/01/25 00:22:44;;;;;;;20.35;4.72;;;;;;;7.65;97.85;101506.59;5022950;28;20050;-79
2024/01/25 00:25:11;;;;;;;24.92;5.30;;;;;;;7.64;97.67;101510.03;5011360;28;20087;-82
2024/01/25 00:27:37;;;;;;;25.27;6.68;;;;;;;7.64;97.80;101512.63;5002947;28;20467;-82
2024/01/25 00:30:04;;;;;;;17.38;5.13;;;;;;;7.59;98.12;101508.22;5021069;28;20053;-81
2024/01/25 00:32:31;;;;;;;19.10;4.55;;;;;;;7.61;98.01;101521.28;5005942;28;20088;-82
2024/01/25 00:34:58;;;;;;;31.15;7.38;;;;;;;7.60;97.63;101517.81;5006820;28;20147;-81
2024/01/25 00:37:25;;;;;;;21.35;5.65;;;;;;;7.64;97.32;101520.47;5023367;28;20073;-81
2024/01/25 00:39:52;;;;;;;30.08;6.05;;;;;;;7.56;97.72;101504.69;5006927;28;20054;-82
2024/01/25 00:42:22;;;;;;;18.17;4.47;;;;;;;7.61;97.65;101531.69;5022338;28;20046;-80
2024/01/25 00:44:49;;;;;;;16.88;6.40;;;;;;;7.58;97.73;101534.28;5036368;28;20046;-82
2024/01/25 00:47:16;;;;;;;22.23;4.32;;;;;;;7.56;98.39;101517.72;5018283;28;20038;-81
2024/01/25 00:49:43;;;;;;;21.52;5.32;;;;;;;7.62;97.70;101523.03;5005500;28;20056;-81
2024/01/25 00:52:11;;;;;;;20.80;5.22;;;;;;;7.63;97.35;101524.81;5015183;28;20053;-80
2024/01/25 00:54:37;;;;;;;26.05;5.18;;;;;;;7.63;97.49;101524.81;5018944;28;20069;-81
2024/01/25 00:57:05;;;;;;;23.58;4.05;;;;;;;7.65;97.40;101532.63;5021836;28;20429;-80
2024/01/25 00:59:31;;;;;;;20.55;4.57;;;;;;;7.63;97.85;101543.03;5003065;28;20140;-81
2024/01/25 01:02:05;;;;;;;24.73;5.70;;;;;;;7.62;98.13;101543.88;5011541;28;20078;-81
2024/01/25 01:04:33;;;;;;;22.55;5.05;;;;;;;7.59;98.20;101549.94;5023717;28;20037;-82
2024/01/25 01:07:01;;;;;;;21.45;5.03;;;;;;;7.60;98.12;101543.88;5007464;28;20045;-80
2024/01/25 01:09:28;;;;;;;22.65;5.65;;;;;;;7.58;98.17;101550.75;5011417;28;20056;-82
2024/01/25 01:11:55;;;;;;;25.35;6.82;;;;;;;7.59;98.38;101547.31;5008482;28;20050;-83
2024/01/25 01:14:21;;;;;;;25.30;5.25;;;;;;;7.58;98.58;101547.28;5012118;28;20493;-81
2024/01/25 01:16:48;;;;;;;24.67;5.20;;;;;;;7.53;98.63;101535.91;5028567;28;20505;-82
2024/01/25 01:19:14;;;;;;;19.65;4.22;;;;;;;7.49;99.30;101541.94;5013828;28;20042;-84
2024/01/25 01:21:43;;;;;;;28.58;5.22;;;;;;;7.49;99.24;101540.19;5026276;28;20052;-82
2024/01/25 01:24:13;;;;;;;12.63;3.42;;;;;;;7.40;99.33;101540.88;5006697;28;20041;-81
2024/01/25 01:26:41;;;;;;;29.25;5.82;;;;;;;7.31;100.00;101529.44;5028434;28;20050;-81
2024/01/25 01:29:08;;;;;;;17.23;5.15;;;;;;;7.27;100.00;101539.81;5013944;28;20447;-81
2024/01/25 01:31:37;;;;;;;20.13;5.18;;;;;;;7.24;100.00;101537.13;5026420;28;20052;-82
2024/01/25 01:34:03;;;;;;;24.88;4.93;;;;;;;7.20;100.00;101531.84;5021263;28;20042;-81
2024/01/25 01:36:30;;;;;;;22.00;5.30;;;;;;;7.16;100.00;101537.81;5010069;28;20173;-80
2024/01/25 01:38:56;;;;;;;28.75;5.00;;;;;;;7.12;100.00;101537.78;5044298;28;20053;-82
2024/01/25 01:41:23;;;;;;;22.73;5.50;;;;;;;7.11;100.00;101540.34;5040736;28;20045;-80
2024/01/25 01:43:54;;;;;;;27.15;4.47;;;;;;;7.06;100.00;101536.78;5023229;28;20176;-83
2024/01/25 01:46:33;;;;;;;15.88;5.50;;;;;;;7.11;100.00;101532.53;5005355;28;20161;-80
2024/01/25 01:49:00;;;;;;;17.77;4.82;;;;;;;7.10;100.00;101533.38;5026261;28;20095;-83
2024/01/25 01:51:26;;;;;;;18.77;5.25;;;;;;;7.11;100.00;101540.34;5024053;28;20057;-81
2024/01/25 01:53:54;;;;;;;21.55;6.80;;;;;;;7.07;100.00;101539.41;5021763;28;20057;-83
2024/01/25 01:56:21;;;;;;;25.20;4.70;;;;;;;7.03;100.00;101545.41;5037490;28;20514;-81
2024/01/25 01:58:49;;;;;;;22.25;4.07;;;;;;;6.96;100.00;101546.09;5009625;28;20061;-82
2024/01/25 02:01:15;;;;;;;18.88;4.75;;;;;;;6.93;100.00;101546.06;5028564;28;20053;-80
2024/01/25 02:03:42;;;;;;;21.67;4.60;;;;;;;6.95;100.00;101549.59;5029961;28;20549;-80
2024/01/25 02:06:09;;;;;;;19.98;4.45;;;;;;;6.97;100.00;101550.47;5027371;28;20435;-81
2024/01/25 02:08:35;;;;;;;23.95;5.30;;;;;;;6.96;100.00;101546.09;5033025;28;20045;-80
2024/01/25 02:11:03;;;;;;;25.42;7.85;;;;;;;6.90;100.00;101549.47;5042381;28;20044;-81
2024/01/25 02:13:29;;;;;;;23.98;5.38;;;;;;;6.91;100.00;101552.94;5048712;28;20717;-80
2024/01/25 02:15:56;;;;;;;23.15;4.78;;;;;;;6.94;100.00;101566.03;5036202;28;20064;-81
2024/01/25 02:18:23;;;;;;;15.82;4.22;;;;;;;6.91;100.00;101573.78;5042970;28;20051;-83
2024/01/25 02:20:49;;;;;;;17.25;3.42;;;;;;;6.93;100.00;101574.69;5031269;28;20077;-83
2024/01/25 02:23:16;;;;;;;27.42;6.18;;;;;;;6.96;100.00;101569.53;5032090;28;20045;-82
2024/01/25 02:25:42;;;;;;;24.48;4.15;;;;;;;6.99;100.00;101574.84;5051766;28;20069;-80
2024/01/25 02:28:09;;;;;;;32.38;4.25;;;;;;;7.05;100.00;101584.47;5042345;28;20044;-82
2024/01/25 02:30:35;;;;;;;22.23;4.22;;;;;;;7.09;100.00;101576.78;5028272;28;20055;-81
2024/01/25 02:33:04;;;;;;;15.85;4.80;;;;;;;7.09;100.00;101581.09;5031712;28;20048;-81
2024/01/25 02:35:31;;;;;;;21.15;4.20;;;;;;;7.03;100.00;101581.84;5027004;28;20052;-81
2024/01/25 02:38:00;;;;;;;22.33;5.10;;;;;;;7.02;100.00;101582.69;5041552;28;20067;-80
2024/01/25 02:40:26;;;;;;;20.13;4.40;;;;;;;7.01;100.00;101577.47;5046429;28;20043;-79
2024/01/25 02:42:53;;;;;;;25.42;4.47;;;;;;;7.03;100.00;101587.06;5026129;28;20498;-84
2024/01/25 02:45:20;;;;;;;26.40;4.35;;;;;;;7.01;100.00;101588.75;5036902;28;20420;-81
2024/01/25 02:47:46;;;;;;;19.45;4.50;;;;;;;7.03;100.00;101592.25;5031211;28;20404;-82
2024/01/25 02:50:13;;;;;;;20.42;5.13;;;;;;;7.02;100.00;101590.50;5045839;28;20047;-83
2024/01/25 02:52:39;;;;;;;21.50;4.80;;;;;;;7.03;100.00;101602.69;5023446;28;20407;-82
2024/01/25 02:55:06;;;;;;;19.30;4.00;;;;;;;7.05;100.00;101603.59;5028141;28;20044;-80
2024/01/25 02:57:33;;;;;;;27.55;5.32;;;;;;;7.04;100.00;101619.16;5041387;28;20044;-82
2024/01/25 03:00:00;;;;;;;20.38;3.85;;;;;;;7.00;100.00;101604.34;5032253;28;20495;-82
2024/01/25 03:02:26;;;;;;;24.10;4.00;;;;;;;6.98;100.00;101606.91;5057872;28;20512;-81
2024/01/25 03:04:53;;;;;;;24.48;4.13;;;;;;;6.97;100.00;101612.94;5038922;28;20427;-81
2024/01/25 03:07:19;;;;;;;15.98;5.03;;;;;;;6.95;100.00;101617.25;5021230;28;20045;-82
2024/01/25 03:09:47;;;;;;;35.17;6.05;;;;;;;6.94;100.00;101612.91;5043582;28;20044;-82
2024/01/25 03:12:14;;;;;;;27.80;5.50;;;;;;;6.90;100.00;101604.13;5029276;28;20044;-82
2024/01/25 03:14:43;;;;;;;21.27;4.32;;;;;;;6.92;100.00;101609.38;5026350;28;20459;-80
2024/01/25 03:17:12;;;;;;;16.95;5.75;;;;;;;6.95;100.00;101617.25;5019739;28;20056;-82
2024/01/25 03:19:39;;;;;;;26.95;4.68;;;;;;;6.93;100.00;101614.59;5039835;28;20049;-81
2024/01/25 03:22:05;;;;;;;21.73;5.65;;;;;;;6.95;100.00;101620.75;5024358;28;20132;-81
2024/01/25 03:24:32;;;;;;;20.25;4.28;;;;;;;6.94;100.00;101623.31;5046110;28;20060;-81
2024/01/25 03:26:59;;;;;;;21.23;4.38;;;;;;;6.91;100.00;101623.22;5043065;28;20043;-81
2024/01/25 03:29:25;;;;;;;31.13;5.78;;;;;;;6.93;100.00;101624.16;5042166;28;20041;-82
2024/01/25 03:31:54;;;;;;;12.70;3.35;;;;;;;6.91;100.00;101625.81;5057254;28;20064;-83
2024/01/25 03:34:23;;;;;;;22.05;4.55;;;;;;;6.92;100.00;101625.00;5027163;28;20328;-81
2024/01/25 03:36:53;;;;;;;21.60;4.32;;;;;;;6.91;100.00;101631.94;5042241;28;20106;-82
2024/01/25 03:39:20;;;;;;;20.83;3.85;;;;;;;6.89;100.00;101633.59;5041468;28;20045;-80
2024/01/25 03:41:46;;;;;;;23.70;4.03;;;;;;;6.92;100.00;101635.41;5045560;28;20498;-82
2024/01/25 03:44:13;;;;;;;18.35;4.53;;;;;;;6.86;100.00;101632.69;5027071;28;20466;-79
2024/01/25 03:46:39;;;;;;;22.65;5.25;;;;;;;6.84;100.00;101639.56;5027712;28;20040;-82
2024/01/25 03:49:06;;;;;;;13.35;3.40;;;;;;;6.79;100.00;101655.97;5026993;28;20774;-82
2024/01/25 03:51:35;;;;;;;20.17;4.95;;;;;;;6.77;100.00;101652.44;5027851;28;20049;-81
2024/01/25 03:54:04;;;;;;;21.52;5.43;;;;;;;6.79;100.00;101648.16;5031068;28;20492;-82
2024/01/25 03:56:31;;;;;;;27.65;5.47;;;;;;;6.79;100.00;101645.56;5046928;28;20048;-81
2024/01/25 03:58:58;;;;;;;22.00;4.97;;;;;;;6.77;100.00;101641.16;5024430;28;20049;-82
2024/01/25 04:01:27;;;;;;;18.48;4.72;;;;;;;6.72;100.00;101633.22;5029643;28;20049;-81
2024/01/25 04:03:53;;;;;;;26.90;4.32;;;;;;;6.69;100.00;101645.28;5030125;28;20788;-82
2024/01/25 04:06:29;;;;;;;27.90;4.95;;;;;;;6.72;100.00;101654.06;5038067;28;20094;-82
2024/01/25 04:09:01;;;;;;;22.27;4.47;;;;;;;6.69;100.00;101650.50;5025882;28;20740;-82
2024/01/25 04:11:27;;;;;;;18.02;4.43;;;;;;;6.67;100.00;101636.59;5035245;28;20049;-81
2024/01/25 04:13:54;;;;;;;25.27;5.13;;;;;;;6.64;100.00;101626.13;5029030;28;20052;-82
2024/01/25 04:16:20;;;;;;;22.10;4.28;;;;;;;6.66;100.00;101632.22;5047573;28;20555;-82
2024/01/25 04:18:47;;;;;;;17.85;5.65;;;;;;;6.70;100.00;101644.44;5027413;28;20049;-80
2024/01/25 04:21:13;;;;;;;18.35;4.53;;;;;;;6.70;100.00;101644.44;5027123;28;20132;-83
2024/01/25 04:23:40;;;;;;;19.23;5.28;;;;;;;6.69;100.00;101643.59;5044432;28;20075;-82
2024/01/25 04:26:07;;;;;;;23.02;5.75;;;;;;;6.68;100.00;101644.41;5042297;28;20033;-80
2024/01/25 04:28:33;;;;;;;19.55;4.07;;;;;;;6.65;100.00;101646.97;5044333;28;20385;-81
2024/01/25 04:31:00;;;;;;;24.02;4.68;;;;;;;6.59;100.00;101650.28;5026271;28;20057;-82
2024/01/25 04:33:26;;;;;;;17.35;4.30;;;;;;;6.61;100.00;101660.75;5027687;28;20140;-83
2024/01/25 04:35:59;;;;;;;23.33;5.25;;;;;;;6.53;100.00;101654.47;5033667;28;20040;-83
2024/01/25 04:38:26;;;;;;;22.25;6.10;;;;;;;6.56;100.00;101654.56;5046780;28;20557;-81
2024/01/25 04:40:52;;;;;;;20.55;4.30;;;;;;;6.54;100.00;101662.31;5028289;28;20688;-83
2024/01/25 04:43:22;;;;;;;31.95;5.70;;;;;;;6.48;100.00;101667.38;5039500;28;20106;-82
2024/01/25 04:45:52;;;;;;;17.75;3.67;;;;;;;6.43;100.00;101664.66;5027714;28;20136;-83
2024/01/25 04:48:22;;;;;;;17.58;3.60;;;;;;;6.44;100.00;101660.31;5028648;28;20040;-82
2024/01/25 04:50:51;;;;;;;16.38;5.40;;;;;;;6.43;100.00;101663.78;5045587;28;20052;-82
2024/01/25 04:53:21;;;;;;;22.00;4.57;;;;;;;6.43;100.00;101666.38;5036788;28;20098;-84
2024/01/25 04:55:50;;;;;;;20.90;4.00;;;;;;;6.39;100.00;101672.34;5056608;28;20098;-82
2024/01/25 04:58:20;;;;;;;17.95;3.78;;;;;;;6.40;100.00;101669.78;5030562;28;20049;-80
2024/01/25 05:00:46;;;;;;;22.00;3.55;;;;;;;6.39;100.00;101681.03;5041417;28;20048;-80
2024/01/25 05:03:13;;;;;;;19.23;4.40;;;;;;;6.41;100.00;101683.66;5043047;28;20049;-81
2024/01/25 05:05:42;;;;;;;22.00;4.45;;;;;;;6.41;100.00;101689.75;5045283;28;20041;-83
2024/01/25 05:08:09;;;;;;;28.17;4.75;;;;;;;6.41;100.00;101700.16;5028436;28;20052;-82
2024/01/25 05:10:36;;;;;;;20.98;6.03;;;;;;;6.36;100.00;101699.16;5045598;28;20504;-81
2024/01/25 05:13:02;;;;;;;27.75;5.72;;;;;;;6.30;100.00;101696.41;5026956;28;20048;-82
2024/01/25 05:15:29;;;;;;;26.20;5.50;;;;;;;6.32;100.00;101709.44;5060522;28;20044;-81
2024/01/25 05:17:55;;;;;;;25.48;4.75;;;;;;;6.30;100.00;101706.81;5026609;28;20051;-80
2024/01/25 05:20:22;;;;;;;16.23;3.50;;;;;;;6.33;100.00;101711.22;5020771;28;20671;-82
2024/01/25 05:22:49;;;;;;;14.55;3.63;;;;;;;6.27;100.00;101717.09;5025214;28;20458;-80
2024/01/25 05:25:15;;;;;;;18.08;3.88;;;;;;;6.18;100.00;101717.78;5044546;28;20037;-81
2024/01/25 05:27:42;;;;;;;14.27;4.03;;;;;;;6.17;100.00;101739.41;5026907;28;20048;-79
2024/01/25 05:30:10;;;;;;;21.50;3.88;;;;;;;6.18;100.00;101735.06;5045742;28;20178;-80
2024/01/25 05:32:36;;;;;;;18.52;6.45;;;;;;;6.18;100.00;101738.56;5046551;28;20696;-81
2024/01/25 05:35:04;;;;;;;18.30;4.07;;;;;;;6.17;100.00;101736.81;5029628;28;20048;-81
2024/01/25 05:37:31;;;;;;;21.67;3.90;;;;;;;6.19;100.00;101737.75;5030955;28;20051;-82
2024/01/25 05:39:57;;;;;;;21.65;4.10;;;;;;;6.20;100.00;101743.81;5045778;28;20098;-83
2024/01/25 05:42:24;;;;;;;17.42;4.28;;;;;;;6.15;100.00;101742.81;5046809;28;20040;-80
2024/01/25 05:44:54;;;;;;;24.10;3.95;;;;;;;6.08;100.00;101741.75;5042012;28;20037;-79
2024/01/25 05:47:21;;;;;;;24.40;3.88;;;;;;;6.07;100.00;101747.78;5045410;28;20387;-80
2024/01/25 05:49:47;;;;;;;24.63;4.43;;;;;;;6.05;100.00;101755.56;5030924;28;20075;-80
2024/01/25 05:52:14;;;;;;;17.50;3.63;;;;;;;6.02;100.00;101760.66;5030659;28;20132;-80
2024/01/25 05:54:41;;;;;;;16.90;3.97;;;;;;;6.00;100.00;101749.34;5026041;28;20492;-82
2024/01/25 05:57:13;;;;;;;28.05;6.43;;;;;;;5.99;100.00;101765.78;5031160;28;20099;-80
2024/01/25 05:59:40;;;;;;;14.93;3.92;;;;;;;5.98;100.00;101764.00;5041233;28;20037;-81
2024/01/25 06:02:08;;;;;;;23.40;4.47;;;;;;;5.99;100.00;101767.50;5043419;28;20164;-80
2024/01/25 06:04:35;;;;;;;27.25;4.97;;;;;;;5.99;100.00;101765.78;5030067;28;20052;-81
2024/01/25 06:07:02;;;;;;;20.90;4.68;;;;;;;5.99;100.00;101762.31;5041413;28;20794;-80
2024/01/25 06:09:29;;;;;;;18.52;4.72;;;;;;;5.97;100.00;101767.41;5031210;28;20519;-80
2024/01/25 06:11:55;;;;;;;19.52;3.60;;;;;;;5.94;100.00;101765.63;5046517;28;20048;-81
2024/01/25 06:14:22;;;;;;;23.27;5.82;;;;;;;5.97;100.00;101781.31;5041474;28;20068;-83
2024/01/25 06:16:48;;;;;;;24.50;5.30;;;;;;;5.95;100.00;101777.75;5026763;28;20049;-80
2024/01/25 06:19:15;;;;;;;19.42;4.20;;;;;;;5.94;100.00;101789.03;5025630;28;20128;-82
2024/01/25 06:21:44;;;;;;;21.55;4.20;;;;;;;5.94;100.00;101790.72;5052511;28;20051;-80
2024/01/25 06:24:10;;;;;;;22.92;4.05;;;;;;;5.92;100.00;101790.69;5042197;28;20091;-80
2024/01/25 06:26:37;;;;;;;19.95;4.38;;;;;;;5.90;100.00;101789.75;5026505;28;20044;-82
2024/01/25 06:29:04;;;;;;;23.00;5.40;;;;;;;5.94;100.00;101788.13;5033350;28;20049;-81
2024/01/25 06:31:30;;;;;;;13.50;4.13;;;;;;;5.93;100.00;101789.84;5027513;28;20514;-84
2024/01/25 06:33:57;;;;;;;21.45;5.30;;;;;;;5.96;100.00;101802.06;5044091;28;20041;-82
2024/01/25 06:36:24;;;;;;;22.02;4.40;;;;;;;5.95;100.00;101802.88;5036090;28;20481;-81
2024/01/25 06:38:50;;;;;;;26.58;6.38;;;;;;;5.95;100.00;101805.50;5026910;28;20713;-83
2024/01/25 06:41:19;;;;;;;19.45;4.13;;;;;;;5.95;100.00;101803.75;5039803;28;20045;-82
2024/01/25 06:43:46;;;;;;;25.58;4.72;;;;;;;5.94;100.00;101816.72;5024479;28;20142;-81
2024/01/25 06:46:12;;;;;;;28.90;6.15;;;;;;;6.00;100.00;101821.22;5034944;28;20044;-80
2024/01/25 06:48:42;;;;;;;21.15;5.35;;;;;;;5.95;100.00;101823.69;5032034;28;20053;-82
2024/01/25 06:51:09;;;;;;;27.05;5.45;;;;;;;5.91;100.00;101830.50;5021992;28;20098;-81
2024/01/25 06:53:35;;;;;;;21.95;4.97;;;;;;;5.89;100.00;101832.19;5019924;28;20122;-81
2024/01/25 06:56:02;;;;;;;26.23;4.38;;;;;;;5.91;100.00;101829.63;5023472;28;20102;-82
2024/01/25 06:58:29;;;;;;;18.83;5.32;;;;;;;5.89;100.00;101829.59;5034519;28;20124;-82
2024/01/25 07:00:56;;;;;;;31.40;5.28;;;;;;;5.85;100.00;101832.03;5022245;28;20407;-82
2024/01/25 07:03:23;;;;;;;18.70;6.18;;;;;;;5.87;100.00;101838.19;5040923;28;20060;-80
2024/01/25 07:05:50;;;;;;;25.20;5.43;;;;;;;5.91;100.00;101848.69;5011332;28;20053;-80
2024/01/25 07:08:16;;;;;;;34.65;5.68;;;;;;;5.88;100.00;101852.91;5036672;28;20494;-82
2024/01/25 07:10:48;;;;;;;28.75;5.78;;;;;;;5.92;100.00;101855.66;5023549;28;20155;-84
2024/01/25 07:13:14;;;;;;;26.15;4.43;;;;;;;5.91;100.00;101853.88;5024439;28;20045;-81
2024/01/25 07:15:41;;;;;;;21.55;4.85;;;;;;;6.12;100.00;101860.59;5027834;28;20041;-83
2024/01/25 07:18:08;;;;;;;27.33;6.68;;;;;;;5.91;100.00;101846.09;5048759;28;20036;-82
2024/01/25 07:20:35;;;;;;;20.83;4.30;;;;;;;5.85;100.00;101853.69;5048449;28;20056;-81
2024/01/25 07:23:02;;;;;;;21.98;4.63;;;;;;;5.87;100.00;101856.38;5037543;28;20048;-82
2024/01/25 07:25:43;;;;;;;25.50;7.03;;;;;;;5.84;100.00;101851.97;5024927;28;20044;-82
2024/01/25 07:28:09;;;;;;;29.00;5.80;;;;;;;5.86;100.00;101855.47;5037940;28;20684;-79
2024/01/25 07:30:36;;;;;;;22.27;5.07;;;;;;;5.88;100.00;101866.81;5041920;28;20067;-82
2024/01/25 07:33:04;;;;;;;25.95;4.75;;;;;;;5.87;100.00;101858.97;5025246;28;20063;-83
2024/01/25 07:35:30;;;;;;;20.52;4.65;;;;;;;5.91;100.00;101863.41;5043413;28;20099;-81
2024/01/25 07:38:03;;;;;;;23.83;5.18;;;;;;;5.94;100.00;101873.91;5041181;28;20045;-81
2024/01/25 07:40:28;;;;;;;18.50;5.35;;;;;;;5.94;100.00;101872.19;5037722;28;20445;-83
2024/01/25 07:42:55;;;;;;;30.27;5.35;;;;;;;5.92;100.00;101873.84;5036140;28;20049;-81
2024/01/25 07:45:22;;;;;;;21.85;5.05;;;;;;;5.93;100.00;101880.81;5042293;28;20035;-81
2024/01/25 07:47:51;;;;;;;15.75;4.10;;;;;;;5.97;100.00;101884.38;5037767;28;20047;-83
2024/01/25 07:50:31;;;;;;;13.98;3.53;;;;;;;5.96;100.00;101880.91;5046420;28;20098;-82
2024/01/25 07:53:00;;;;;;;17.63;4.20;;;;;;;5.95;100.00;101893.84;5043196;28;20168;-81
2024/01/25 07:55:43;;;;;;;;;;;;;;;;;;;;;
2024/01/25 07:58:31;;;;;;;;;;;;;;;;;;;;;
2024/01/25 08:01:23;;;;;;;27.20;5.05;;;;;;;6.06;100.00;101902.00;5019334;28;20067;-81
2024/01/25 08:03:58;;;;;;;19.40;5.78;;;;;;;6.04;100.00;101893.28;5043933;28;20070;-81
2024/01/25 08:06:29;;;;;;;20.50;4.82;;;;;;;6.07;100.00;101901.16;5045690;28;20033;-83
2024/01/25 08:09:05;;;;;;;33.53;6.43;;;;;;;6.08;100.00;101901.22;5053912;28;20415;-81
2024/01/25 08:14:25;;;;;;;;;;;;;;;;;;;;;
2024/01/25 08:17:18;;;;;;;25.52;5.78;;;;;;;6.11;100.00;101898.72;5051053;28;20117;-82
2024/01/25 08:19:54;;;;;;;25.70;6.30;;;;;;;6.11;100.00;101895.22;5033480;28;20045;-81
2024/01/25 08:22:21;;;;;;;19.92;5.43;;;;;;;6.08;100.00;101902.94;5043861;28;21031;-82
2024/01/25 08:24:53;;;;;;;24.73;4.97;;;;;;;6.10;100.00;101909.03;5045797;28;20059;-83
2024/01/25 08:27:20;;;;;;;26.17;4.85;;;;;;;6.07;100.00;101917.63;5034501;28;20436;-81
2024/01/25 08:29:51;;;;;;;25.45;5.22;;;;;;;6.05;100.00;101902.81;5046637;28;20045;-82
2024/01/25 08:32:19;;;;;;;18.58;5.20;;;;;;;6.08;100.00;101910.75;5024953;28;20108;-82
2024/01/25 08:34:49;;;;;;;17.48;4.68;;;;;;;6.09;100.00;101913.38;5049752;28;20053;-83
2024/01/25 08:37:16;;;;;;;44.55;6.80;;;;;;;6.08;100.00;101911.59;5023738;28;20059;-82
2024/01/25 08:39:43;;;;;;;27.77;4.97;;;;;;;6.03;100.00;101917.50;5042870;28;20487;-82
2024/01/25 08:42:10;;;;;;;23.17;6.53;;;;;;;6.11;100.00;101929.03;5032459;28;20072;-82
2024/01/25 08:44:40;;;;;;;25.48;6.05;;;;;;;6.20;100.00;101924.09;5030769;28;20493;-82
2024/01/25 08:47:09;;;;;;;37.15;6.45;;;;;;;6.20;100.00;101928.41;5048583;28;20472;-84
2024/01/25 08:49:45;;;;;;;12.13;4.68;;;;;;;6.19;100.00;101926.66;5029802;28;20040;-84
2024/01/25 08:52:15;;;;;;;29.42;5.68;;;;;;;6.23;100.00;101926.78;5030788;28;20590;-83
2024/01/25 08:54:42;;;;;;;30.80;5.88;;;;;;;6.25;100.00;101930.31;5045498;28;20041;-83
2024/01/25 08:57:09;;;;;;;20.77;5.35;;;;;;;6.37;100.00;101934.97;5022324;28;20854;-83
2024/01/25 08:59:38;;;;;;;24.33;4.88;;;;;;;6.29;100.00;101932.16;5044462;28;20115;-82
2024/01/25 09:02:06;;;;;;;23.48;5.53;;;;;;;6.32;100.00;101936.56;5034671;28;20053;-82
2024/01/25 09:04:33;;;;;;;22.83;5.30;;;;;;;6.39;100.00;101946.31;5045509;28;20063;-81
2024/01/25 09:07:03;;;;;;;27.00;6.65;;;;;;;6.43;100.00;101945.56;5026926;28;20076;-83
2024/01/25 09:09:29;;;;;;;30.75;5.53;;;;;;;6.46;100.00;101949.97;5048700;28;20046;-82
2024/01/25 09:11:56;;;;;;;15.93;4.47;;;;;;;6.56;100.00;101961.53;5026823;28;20148;-80
2024/01/25 09:14:22;;;;;;;17.02;4.20;;;;;;;6.53;100.00;101956.22;5026873;28;20051;-80
2024/01/25 09:16:55;;;;;;;20.55;5.93;;;;;;;6.51;100.00;101956.19;5029693;28;20056;-80
2024/01/25 09:19:27;;;;;;;22.98;4.45;;;;;;;6.53;100.00;101964.03;5034587;28;20038;-80
2024/01/25 09:21:53;;;;;;;23.63;6.22;;;;;;;6.51;100.00;101965.75;5024194;28;20042;-82
2024/01/25 09:24:20;;;;;;;27.02;5.28;;;;;;;6.49;100.00;101970.00;5037563;28;20068;-82
2024/01/25 09:26:47;;;;;;;20.85;6.97;;;;;;;6.48;100.00;101982.13;5045175;28;20393;-80
2024/01/25 09:29:15;;;;;;;13.15;4.22;;;;;;;6.60;100.00;101981.59;5039184;28;20476;-82
2024/01/25 09:31:41;;;;;;;19.33;5.15;;;;;;;6.65;100.00;101984.31;5032078;28;20858;-80
2024/01/25 09:34:08;;;;;;;19.20;5.05;;;;;;;6.66;100.00;101981.75;5043152;28;20120;-79
2024/01/25 09:36:35;;;;;;;16.33;4.40;;;;;;;6.62;100.00;101993.81;5023695;28;20049;-81
2024/01/25 09:39:01;;;;;;;28.20;5.57;;;;;;;6.66;100.00;101986.09;5022714;28;20092;-83
2024/01/25 09:41:28;;;;;;;28.55;5.90;;;;;;;6.66;100.00;101981.75;5022335;28;20046;-81
2024/01/25 09:43:55;;;;;;;14.57;5.13;;;;;;;6.69;100.00;101988.78;5041077;28;20450;-80
2024/01/25 09:46:26;;;;;;;18.35;5.15;;;;;;;6.72;100.00;101996.69;5020789;28;20052;-83
2024/01/25 09:49:11;;;;;;;24.50;6.20;;;;;;;6.76;100.00;102004.59;5037830;28;20156;-82
2024/01/25 09:51:41;;;;;;;21.25;4.53;;;;;;;6.72;100.00;101994.09;5007246;28;20067;-80
2024/01/25 09:54:08;;;;;;;19.48;5.43;;;;;;;6.67;100.00;101988.72;5023298;28;20122;-80
2024/01/25 09:56:36;;;;;;;21.17;5.43;;;;;;;6.76;100.00;101991.59;5031108;28;20057;-82
2024/01/25 09:59:04;;;;;;;29.65;8.38;;;;;;;6.87;100.00;102002.34;5021201;28;20045;-82
2024/01/25 10:01:37;;;;;;;32.15;4.95;;;;;;;6.93;100.00;102007.69;5038508;28;20133;-80
2024/01/25 10:04:08;;;;;;;26.73;6.50;;;;;;;6.92;100.00;102002.44;5021579;28;20412;-81
2024/01/25 10:06:35;;;;;;;16.52;4.78;;;;;;;6.97;100.00;102002.59;5040149;28;20049;-83
2024/01/25 10:09:01;;;;;;;29.77;4.85;;;;;;;6.98;100.00;102002.63;5026180;28;20045;-81
2024/01/25 10:11:33;;;;;;;25.65;6.43;;;;;;;7.01;100.00;102001.81;5019839;28;20401;-82
2024/01/25 10:14:03;;;;;;;18.83;4.38;;;;;;;7.06;100.00;102000.22;5037837;28;20440;-82
2024/01/25 10:16:30;;;;;;;18.88;4.78;;;;;;;7.23;100.00;101995.47;5020839;28;20526;-81
2024/01/25 10:18:57;;;;;;;19.92;4.70;;;;;;;7.19;100.00;101997.09;5037881;28;20057;-82
2024/01/25 10:21:24;;;;;;;21.88;5.65;;;;;;;7.26;100.00;101992.94;5025827;28;20778;-81
2024/01/25 10:23:54;;;;;;;17.05;4.70;;;;;;;7.33;100.00;101992.28;5022090;28;20437;-83
2024/01/25 10:26:21;;;;;;;19.65;4.35;;;;;;;7.43;100.00;102001.19;5034892;28;20045;-83
2024/01/25 10:28:55;;;;;;;24.67;5.70;;;;;;;7.29;100.00;101995.63;5032477;28;20163;-82
2024/01/25 10:31:25;;;;;;;15.98;4.03;;;;;;;7.26;100.00;102001.66;5037308;28;20129;-81
2024/01/25 10:33:55;;;;;;;19.95;5.07;;;;;;;7.21;100.00;101994.53;5024651;28;20616;-84
2024/01/25 10:36:23;;;;;;;23.52;5.72;;;;;;;7.26;100.00;101996.44;5035348;28;20094;-82
2024/01/25 10:38:50;;;;;;;22.70;5.63;;;;;;;7.28;100.00;101989.53;5020325;28;20136;-81
2024/01/25 10:41:20;;;;;;;21.73;5.97;;;;;;;7.38;100.00;101995.88;5022489;28;20127;-82
2024/01/25 10:43:47;;;;;;;24.15;8.07;;;;;;;7.51;100.00;101999.69;5022358;28;20077;-82
2024/01/25 10:46:13;;;;;;;19.92;7.00;;;;;;;7.41;100.00;102003.75;5021327;28;20102;-80
2024/01/25 10:48:40;;;;;;;26.80;6.57;;;;;;;7.38;100.00;102008.91;5027833;28;20048;-82
2024/01/25 10:51:07;;;;;;;16.17;4.13;;;;;;;7.46;100.00;102014.31;5037789;28;20040;-82
2024/01/25 10:53:36;;;;;;;24.52;4.93;;;;;;;7.22;100.00;102012.84;5008402;28;20060;-82
2024/01/25 10:56:04;;;;;;;18.75;4.65;;;;;;;7.25;100.00;102015.50;5021848;28;20119;-82
2024/01/25 10:58:35;;;;;;;19.85;5.13;;;;;;;7.15;100.00;102018.69;5033176;28;20088;-80
2024/01/25 11:01:03;;;;;;;20.85;6.20;;;;;;;7.06;100.00;102018.44;5021882;28;20133;-81
2024/01/25 11:03:31;;;;;;;12.75;5.38;;;;;;;7.01;100.00;102020.03;5029930;28;20418;-80
2024/01/25 11:06:12;;;;;;;20.25;5.45;;;;;;;7.04;100.00;102017.50;5020818;28;20049;-84
2024/01/25 11:08:42;;;;;;;26.98;5.68;;;;;;;7.09;100.00;102021.13;5031149;28;20048;-83
2024/01/25 11:11:13;;;;;;;23.00;7.22;;;;;;;7.16;100.00;102020.47;5035780;28;20103;-79
2024/01/25 11:13:43;;;;;;;18.85;5.70;;;;;;;7.19;100.00;102023.16;5026797;28;20056;-81
2024/01/25 11:16:20;;;;;;;23.15;5.60;;;;;;;7.30;100.00;102018.25;5023724;28;20044;-83
2024/01/25 11:18:58;;;;;;;20.35;6.05;;;;;;;7.16;100.00;102009.16;5040382;28;20040;-82
2024/01/25 11:21:54;;;;;;;23.52;5.55;;;;;;;7.13;100.00;102009.94;5046035;28;20708;-80
2024/01/25 11:24:25;;;;;;;16.25;5.25;;;;;;;7.08;100.00;102011.56;5033250;28;20040;-81
2024/01/25 11:26:55;;;;;;;22.20;5.78;;;;;;;7.30;100.00;102015.66;5019708;28;20060;-83
2024/01/25 11:29:26;;;;;;;24.52;6.38;;;;;;;7.41;100.00;102018.53;5037055;28;20105;-83